»·PEaware :: AAL100 KSFO-KSBA

AAL100 :: KSFO-KSBA

FLIGHT INFORMATION

Flight Status: Arrived
Operator:
American Airlines
More flights by this operator :: More flights under this callsign
Pilot: Max W. (2591)
Aircraft: AIRBUS A330-200
(A332)
More flights by this aircraft type
Origin: KSFO San Francisco Intl
United States
Destination: KSBA Santa Barbara Mun
United States
More flights between these airports :: More routes between these airports
Route: +SSTIK3 EBAYE GVO
File this flight plan on PilotEdge
Remarks:
Altitude:
(Current/Filed)
30,000ft
Speed:
(Current/Filed)
500kts
Departed: 13-Mar-17 09:00 AM
Arrived: 13-Mar-17 09:45 AM
Distance/Time
Traveled:
228nm/0:45
Distance/Time
To Go:
Arrived

Flight Plot

Page will automatically refresh every two minutes.

Flight plan parsing failed; only flown route is shown


Map Options




Map Legend


Flown Route
Filed Route
Departure Airport
Arrival Airport
Navaid (VOR, NDB)
Fix

Horizontal Profiles

Position Reports

Time Latitude Longitude Heading Altitude Ground
Speed
13-Mar-17 08:32 37.619002 -122.385960 170 26ft 0kts
13-Mar-17 08:33 37.619002 -122.385960 170 26ft 0kts
13-Mar-17 08:34 37.619002 -122.385960 170 26ft 0kts
13-Mar-17 08:35 37.619002 -122.385960 170 26ft 0kts
13-Mar-17 08:36 37.619002 -122.385960 170 26ft 0kts
13-Mar-17 08:37 37.619002 -122.385960 170 26ft 0kts
13-Mar-17 08:38 37.619002 -122.385960 170 26ft 0kts
13-Mar-17 08:39 37.619002 -122.385960 170 26ft 0kts
13-Mar-17 08:40 37.619002 -122.385960 170 26ft 0kts
13-Mar-17 08:41 37.619002 -122.385960 170 26ft 0kts
13-Mar-17 08:42 37.619002 -122.385960 170 26ft 0kts
13-Mar-17 08:43 37.619002 -122.385960 170 26ft 0kts
13-Mar-17 08:44 37.619002 -122.385960 170 26ft 0kts
13-Mar-17 08:45 37.619002 -122.385960 170 26ft 0kts
13-Mar-17 08:46 37.619002 -122.385960 170 26ft 0kts
13-Mar-17 08:47 37.619002 -122.385960 170 26ft 0kts
13-Mar-17 08:48 37.619002 -122.385960 170 26ft 0kts
13-Mar-17 08:49 37.619002 -122.385960 170 26ft 0kts
13-Mar-17 08:50 37.619595 -122.386083 170 26ft 0kts
13-Mar-17 08:51 37.619842 -122.386136 170 25ft 0kts
13-Mar-17 08:52 37.620460 -122.385362 34 25ft 13kts
13-Mar-17 08:53 37.619304 -122.381161 116 25ft 19kts
13-Mar-17 08:54 37.614212 -122.381216 208 25ft 21kts
13-Mar-17 08:55 37.610666 -122.383577 207 26ft 9kts
13-Mar-17 08:56 37.608850 -122.384577 145 26ft 5kts
13-Mar-17 08:57 37.608682 -122.384347 124 26ft 0kts
13-Mar-17 08:58 37.608614 -122.384193 117 26ft 0kts
13-Mar-17 08:59 37.608614 -122.384193 117 26ft 0kts
13-Mar-17 09:00 37.608667 -122.382413 27 26ft 28kts
13-Mar-17 09:01 37.641124 -122.365319 2 1343ft 169kts
13-Mar-17 09:02 37.680369 -122.381862 293 3169ft 177kts
13-Mar-17 09:03 37.645884 -122.424956 193 4372ft 243kts
13-Mar-17 09:04 37.573747 -122.448103 192 6633ft 276kts
13-Mar-17 09:05 37.499173 -122.467572 168 9439ft 278kts
13-Mar-17 09:06 37.436746 -122.401022 134 10750ft 336kts
13-Mar-17 09:07 37.369907 -122.311956 133 13128ft 364kts
13-Mar-17 09:08 37.299981 -122.217565 134 15766ft 379kts
13-Mar-17 09:09 37.226597 -122.118685 135 18179ft 397kts
13-Mar-17 09:10 37.150398 -122.016344 134 20534ft 410kts
13-Mar-17 09:11 37.071479 -121.910666 134 22707ft 424kts
13-Mar-17 09:12 36.991119 -121.802535 134 24688ft 436kts
13-Mar-17 09:13 36.907550 -121.691318 134 26549ft 447kts
13-Mar-17 09:14 36.821395 -121.577129 134 28263ft 458kts
13-Mar-17 09:15 36.733847 -121.461499 134 30169ft 458kts
13-Mar-17 09:16 36.646785 -121.346929 134 31194ft 455kts
13-Mar-17 09:17 36.559771 -121.232785 134 31163ft 456kts
13-Mar-17 09:18 36.473633 -121.118293 134 31183ft 455kts
13-Mar-17 09:19 36.390259 -121.003224 132 31185ft 455kts
13-Mar-17 09:20 36.294027 -120.910024 174 31183ft 451kts
13-Mar-17 09:21 36.172715 -120.880680 160 31162ft 451kts
13-Mar-17 09:22 36.061844 -120.826906 157 29703ft 430kts
13-Mar-17 09:23 35.957918 -120.760621 158 27539ft 416kts
13-Mar-17 09:24 35.852684 -120.709189 160 25422ft 403kts
13-Mar-17 09:25 35.747708 -120.659224 160 24159ft 428kts
13-Mar-17 09:26 35.637283 -120.606845 160 24157ft 427kts
13-Mar-17 09:27 35.529241 -120.555768 160 22536ft 413kts
13-Mar-17 09:28 35.429948 -120.508966 160 20503ft 400kts
13-Mar-17 09:29 35.329854 -120.461941 161 18332ft 391kts
13-Mar-17 09:30 35.230486 -120.415356 160 16237ft 378kts
13-Mar-17 09:31 35.133867 -120.370166 159 14142ft 368kts
13-Mar-17 09:32 35.039871 -120.326309 159 12044ft 359kts
13-Mar-17 09:33 34.948228 -120.283656 158 10073ft 351kts
13-Mar-17 09:34 34.863139 -120.257381 171 9976ft 284kts
13-Mar-17 09:35 34.786495 -120.245598 171 8413ft 277kts
13-Mar-17 09:36 34.710450 -120.235243 171 6738ft 277kts
13-Mar-17 09:37 34.634299 -120.224909 171 5132ft 274kts
13-Mar-17 09:38 34.559870 -120.213667 171 3987ft 265kts
13-Mar-17 09:39 34.487233 -120.201191 171 3984ft 251kts
13-Mar-17 09:40 34.427070 -120.181111 123 4020ft 223kts
13-Mar-17 09:41 34.421821 -120.109680 86 3982ft 216kts
13-Mar-17 09:42 34.423215 -120.044602 87 3142ft 190kts
13-Mar-17 09:43 34.424642 -119.981383 87 2104ft 183kts
13-Mar-17 09:44 34.425911 -119.925717 88 1184ft 142kts
13-Mar-17 09:45 34.427003 -119.878003 89 428ft 142kts
13-Mar-17 09:46 34.427781 -119.839198 100 26ft 24kts
13-Mar-17 09:47 34.426615 -119.838337 165 26ft 6kts

Navigation Log

Ident Type
Flight plan parsing failed, navigation log unavailable